Time;durP1;ratioP1;P1;durP2;ratioP2;P2;SDS_P1;SDS_P2;PMS_P1;PMS_P2;Temp;Humidity;BMP_temperature;BMP_pressure;BME280_temperature;BME280_humidity;BME280_pressure;Samples;Min_cycle;Max_cycle;Signal;HPM_P1;HPM_P2
2023/06/27 00:04:32;;;;;;;5.63;1.38;;;30.00;48.70;;;;;;10538147;28;20750;-31
2023/06/27 00:09:34;;;;;;;3.85;1.05;;;30.30;48.40;;;;;;10534549;28;20078;-32
2023/06/27 00:14:37;;;;;;;1.55;0.63;;;30.00;48.60;;;;;;10541364;28;20071;-35
2023/06/27 00:19:40;;;;;;;4.38;1.10;;;30.20;48.50;;;;;;10531816;28;20048;-35
2023/06/27 00:24:41;;;;;;;3.28;1.25;;;30.20;48.50;;;;;;10536776;28;20101;-33
2023/06/27 00:29:45;;;;;;;2.03;1.02;;;30.20;48.50;;;;;;10537524;28;20079;-32
2023/06/27 00:34:47;;;;;;;2.80;0.68;;;30.20;48.50;;;;;;10537405;28;20388;-36
2023/06/27 00:39:49;;;;;;;2.63;1.10;;;30.20;48.60;;;;;;10536341;28;20202;-34
2023/06/27 00:44:52;;;;;;;1.35;0.70;;;30.00;48.70;;;;;;10540735;28;20793;-35
2023/06/27 00:49:54;;;;;;;3.17;1.10;;;30.10;48.70;;;;;;10526718;28;20131;-38
2023/06/27 00:54:57;;;;;;;3.05;1.10;;;30.10;48.60;;;;;;10531080;28;20128;-35
2023/06/27 01:00:01;;;;;;;3.15;0.90;;;30.10;48.60;;;;;;10533133;28;20117;-36
2023/06/27 01:05:03;;;;;;;3.45;1.10;;;30.10;48.70;;;;;;10532882;28;20101;-32
2023/06/27 01:10:10;;;;;;;2.17;1.02;;;30.00;48.70;;;;;;10533742;28;20048;-33
2023/06/27 01:15:13;;;;;;;2.85;0.93;;;30.00;48.80;;;;;;10540620;28;20094;-32
2023/06/27 01:20:16;;;;;;;1.58;0.90;;;30.00;48.80;;;;;;10532164;28;20079;-33
2023/06/27 01:25:19;;;;;;;3.53;0.82;;;30.00;48.90;;;;;;10532319;28;20051;-33
2023/06/27 01:30:21;;;;;;;1.88;1.00;;;29.90;48.90;;;;;;10534232;28;20094;-32
2023/06/27 01:35:32;;;;;;;2.47;1.10;;;29.90;48.90;;;;;;10528082;28;20052;-33
2023/06/27 01:40:37;;;;;;;1.95;0.95;;;29.90;49.10;;;;;;10533872;28;20052;-35
2023/06/27 01:45:40;;;;;;;3.88;0.85;;;29.90;49.10;;;;;;10540241;28;20047;-31
2023/06/27 01:50:42;;;;;;;1.83;0.82;;;29.80;49.00;;;;;;10534121;28;20134;-30
2023/06/27 01:55:45;;;;;;;4.30;1.20;;;29.80;49.10;;;;;;10533046;28;20105;-32
2023/06/27 02:00:49;;;;;;;3.85;1.20;;;29.80;49.20;;;;;;10533631;28;20507;-32
2023/06/27 02:05:51;;;;;;;3.42;1.10;;;29.70;49.20;;;;;;10533432;28;20478;-31
2023/06/27 02:10:54;;;;;;;2.42;1.00;;;29.70;49.20;;;;;;10534246;28;20048;-31
2023/06/27 02:15:56;;;;;;;1.88;0.85;;;29.70;49.30;;;;;;10528610;28;20097;-35
2023/06/27 02:20:58;;;;;;;3.05;1.33;;;29.70;49.90;;;;;;10533308;28;20147;-32
2023/06/27 02:26:03;;;;;;;2.58;1.00;;;29.60;49.30;;;;;;10533621;28;20604;-32
2023/06/27 02:31:05;;;;;;;2.80;1.02;;;29.60;49.40;;;;;;10532854;28;20040;-33
2023/06/27 02:36:07;;;;;;;2.50;0.70;;;29.60;49.40;;;;;;10532856;28;20044;-31
2023/06/27 02:41:10;;;;;;;3.40;1.15;;;29.60;49.40;;;;;;10531226;28;20075;-32
2023/06/27 02:46:12;;;;;;;2.10;0.80;;;29.60;49.50;;;;;;10531614;28;20123;-32
2023/06/27 02:51:14;;;;;;;4.60;1.00;;;29.50;49.50;;;;;;10532236;28;20044;-33
2023/06/27 02:56:18;;;;;;;2.60;0.90;;;29.50;49.60;;;;;;10531528;28;20101;-33
2023/06/27 03:15:29;;;;;;;2.65;1.00;;;29.10;49.80;;;;;;10471624;27;2104753;-34
2023/06/27 03:20:31;;;;;;;2.72;1.08;;;29.20;50.10;;;;;;10548530;28;20048;-32
2023/06/27 03:25:33;;;;;;;5.60;1.00;;;29.30;49.90;;;;;;10578815;28;20036;-33
2023/06/27 03:30:38;;;;;;;4.97;0.90;;;29.20;49.90;;;;;;10568763;28;20040;-33
2023/06/27 03:35:40;;;;;;;2.90;1.00;;;29.20;49.90;;;;;;10544474;28;20048;-33
2023/06/27 03:40:42;;;;;;;3.75;1.38;;;29.20;49.90;;;;;;10563880;28;20085;-33
2023/06/27 03:45:46;;;;;;;1.75;0.88;;;29.20;50.00;;;;;;10559003;28;20139;-32
2023/06/27 03:50:50;;;;;;;2.63;0.90;;;29.10;50.10;;;;;;10562094;28;20490;-34
2023/06/27 03:55:52;;;;;;;5.05;1.13;;;29.10;50.00;;;;;;10553395;28;20452;-33
2023/06/27 04:00:55;;;;;;;3.00;1.10;;;29.10;50.10;;;;;;10560798;28;20083;-32
2023/06/27 04:05:57;;;;;;;4.95;1.27;;;29.10;50.20;;;;;;10565388;28;20068;-30
2023/06/27 04:10:58;;;;;;;2.75;0.93;;;28.40;50.80;;;;;;10556942;28;20146;-34
2023/06/27 04:16:01;;;;;;;2.47;1.20;;;28.40;49.60;;;;;;10562607;28;20067;-30
2023/06/27 04:21:04;;;;;;;3.97;1.02;;;28.90;50.40;;;;;;10563121;28;20093;-32
2023/06/27 04:26:07;;;;;;;3.20;0.88;;;28.80;50.40;;;;;;10538992;28;20064;-31
2023/06/27 04:31:10;;;;;;;3.42;1.45;;;28.80;50.50;;;;;;10532098;28;20072;-31
2023/06/27 04:36:15;;;;;;;5.78;1.40;;;28.20;50.50;;;;;;10536490;28;20068;-40
2023/06/27 04:41:17;;;;;;;3.25;1.10;;;28.80;50.40;;;;;;10533814;28;20510;-32
2023/06/27 04:46:20;;;;;;;5.07;1.10;;;28.90;50.20;;;;;;10529125;28;20448;-31
2023/06/27 04:51:23;;;;;;;4.70;0.80;;;28.90;50.00;;;;;;10533289;28;20485;-31
2023/06/27 04:56:26;;;;;;;6.35;0.88;;;28.90;50.10;;;;;;10532089;28;20090;-36
2023/06/27 05:01:29;;;;;;;4.32;1.15;;;28.70;50.20;;;;;;10534072;28;20051;-32
2023/06/27 05:06:34;;;;;;;3.80;1.42;;;27.80;51.70;;;;;;10535746;28;20496;-34
2023/06/27 05:11:36;;;;;;;4.28;0.50;;;28.60;50.30;;;;;;10532321;28;20056;-37
2023/06/27 05:16:39;;;;;;;3.45;1.05;;;28.00;51.10;;;;;;10528771;28;20097;-34
2023/06/27 05:21:41;;;;;;;3.22;0.85;;;28.10;50.30;;;;;;10531742;28;20154;-35
2023/06/27 05:26:44;;;;;;;7.63;1.27;;;28.60;50.10;;;;;;10525438;28;20706;-32
2023/06/27 05:31:47;;;;;;;3.05;0.80;;;27.70;51.70;;;;;;10522154;28;20472;-32
2023/06/27 05:36:49;;;;;;;2.83;0.77;;;28.10;51.20;;;;;;10515890;28;20598;-34
2023/06/27 05:41:50;;;;;;;3.13;0.70;;;28.60;49.90;;;;;;10526166;28;20079;-34
2023/06/27 05:46:54;;;;;;;4.82;1.13;;;27.10;52.60;;;;;;10526471;28;20048;-34
2023/06/27 05:51:55;;;;;;;4.57;0.70;;;26.70;53.30;;;;;;10527392;28;20095;-33
2023/06/27 05:56:57;;;;;;;1.83;0.70;;;28.30;51.40;;;;;;10527509;28;20134;-30
2023/06/27 06:02:00;;;;;;;3.92;0.73;;;28.40;50.40;;;;;;10532475;28;20091;-30
2023/06/27 06:07:03;;;;;;;3.80;0.75;;;27.10;51.40;;;;;;10526498;28;20119;-31
2023/06/27 06:12:06;;;;;;;3.55;0.93;;;28.20;49.70;;;;;;10522850;28;20055;-33
2023/06/27 06:17:09;;;;;;;1.67;0.80;;;28.20;50.50;;;;;;10525424;28;20083;-33
2023/06/27 06:22:11;;;;;;;3.40;0.80;;;28.60;50.00;;;;;;10527835;28;20063;-37
2023/06/27 06:27:13;;;;;;;2.53;0.57;;;28.20;50.70;;;;;;10525631;28;20157;-38
2023/06/27 06:32:16;;;;;;;2.25;0.65;;;28.80;49.60;;;;;;10529779;28;20071;-32
2023/06/27 06:37:18;;;;;;;2.72;0.73;;;28.40;50.10;;;;;;10527598;28;20546;-37
2023/06/27 06:42:19;;;;;;;3.55;0.70;;;28.50;50.40;;;;;;10534338;28;20117;-33
2023/06/27 06:47:23;;;;;;;9.70;1.25;;;28.40;50.30;;;;;;10533283;28;20158;-35
2023/06/27 06:52:24;;;;;;;1.95;0.68;;;28.50;50.40;;;;;;10530145;28;20519;-32
2023/06/27 06:57:26;;;;;;;2.90;0.90;;;28.30;50.80;;;;;;10520256;28;20244;-34
2023/06/27 07:02:29;;;;;;;4.63;0.70;;;28.60;50.00;;;;;;10533933;28;20535;-37
2023/06/27 07:07:31;;;;;;;4.65;0.88;;;28.40;50.50;;;;;;10531234;28;20098;-37
2023/06/27 07:12:33;;;;;;;1.67;0.55;;;28.70;49.50;;;;;;10532033;28;20146;-34
2023/06/27 07:17:36;;;;;;;2.10;0.60;;;28.70;50.00;;;;;;10529596;28;20052;-33
2023/06/27 07:22:38;;;;;;;3.28;0.60;;;28.80;50.50;;;;;;10535414;28;20060;-38
2023/06/27 07:27:40;;;;;;;1.10;0.30;;;28.50;49.90;;;;;;10524962;28;20064;-40
2023/06/27 07:32:44;;;;;;;5.05;0.90;;;28.70;49.80;;;;;;10527935;28;20794;-37
2023/06/27 07:37:46;;;;;;;3.30;0.60;;;28.50;49.70;;;;;;10540137;28;20043;-31
2023/06/27 07:42:48;;;;;;;4.18;0.65;;;28.30;50.30;;;;;;10541948;28;20183;-31
2023/06/27 07:47:51;;;;;;;2.13;0.80;;;28.70;49.70;;;;;;10532011;28;20082;-32
2023/06/27 07:52:53;;;;;;;1.90;0.93;;;28.80;49.60;;;;;;10520333;28;20056;-32
2023/06/27 07:57:55;;;;;;;2.65;0.70;;;28.70;49.80;;;;;;10531405;28;20233;-39
2023/06/27 08:02:58;;;;;;;2.13;0.40;;;28.50;50.00;;;;;;10542483;28;20151;-36
2023/06/27 08:08:00;;;;;;;1.13;0.40;;;28.90;49.50;;;;;;10550881;28;20075;-32
2023/06/27 08:13:02;;;;;;;3.13;0.70;;;28.80;49.40;;;;;;10548292;28;20056;-34
2023/06/27 08:18:06;;;;;;;1.98;0.70;;;28.70;49.60;;;;;;10541413;28;20119;-39
2023/06/27 08:23:08;;;;;;;3.10;0.70;;;28.50;50.10;;;;;;10535671;28;20098;-36
2023/06/27 08:28:10;;;;;;;2.55;0.52;;;28.20;49.90;;;;;;10535234;28;20488;-34
2023/06/27 08:33:14;;;;;;;1.65;0.60;;;28.00;48.30;;;;;;10522602;28;20105;-37
2023/06/27 08:38:19;;;;;;;2.80;0.60;;;27.90;50.40;;;;;;10522169;28;20077;-38
2023/06/27 08:43:21;;;;;;;3.70;0.70;;;28.70;48.80;;;;;;10534458;28;20044;-38
2023/06/27 08:48:25;;;;;;;4.85;0.80;;;27.10;51.20;;;;;;10532757;28;20052;-38
2023/06/27 08:53:29;;;;;;;2.83;0.70;;;27.40;51.60;;;;;;10531265;28;20087;-36
2023/06/27 08:58:40;;;;;;;2.97;0.77;;;27.80;51.10;;;;;;10516365;28;20497;-38
2023/06/27 09:03:43;;;;;;;1.10;0.50;;;27.90;50.30;;;;;;10532657;28;20099;-37
2023/06/27 09:08:45;;;;;;;3.78;1.30;;;28.40;49.80;;;;;;10513137;28;20652;-33
2023/06/27 09:13:47;;;;;;;4.20;0.90;;;26.00;51.50;;;;;;10533331;28;20060;-34
2023/06/27 09:18:51;;;;;;;3.28;1.05;;;27.10;51.90;;;;;;10523458;28;20134;-32
2023/06/27 09:23:53;;;;;;;1.63;0.60;;;27.40;51.30;;;;;;10520905;28;20488;-32
2023/06/27 09:29:02;;;;;;;3.42;1.02;;;27.90;50.80;;;;;;10533164;28;20068;-33
2023/06/27 09:34:10;;;;;;;2.55;0.80;;;27.10;49.10;;;;;;10529423;28;20040;-33
2023/06/27 09:39:13;;;;;;;2.20;0.88;;;26.80;52.30;;;;;;10531915;28;20040;-34
2023/06/27 09:44:16;;;;;;;1.25;0.50;;;27.40;51.30;;;;;;10531419;28;20074;-33
2023/06/27 09:49:20;;;;;;;5.18;0.80;;;28.10;50.60;;;;;;10525474;28;20056;-34
2023/06/27 09:54:26;;;;;;;6.38;0.85;;;27.30;48.40;;;;;;10522738;28;20087;-33
2023/06/27 09:59:29;;;;;;;1.95;0.60;;;27.20;50.90;;;;;;10529642;28;20050;-33
2023/06/27 10:04:33;;;;;;;1.95;0.70;;;27.60;51.20;;;;;;10521549;28;20068;-33
2023/06/27 10:09:35;;;;;;;3.25;1.08;;;28.30;50.00;;;;;;10532208;28;20056;-31
2023/06/27 10:14:37;;;;;;;2.47;1.23;;;27.30;49.90;;;;;;10535852;28;20113;-37
2023/06/27 10:19:41;;;;;;;4.25;0.93;;;27.70;50.30;;;;;;10515730;28;20131;-35
2023/06/27 10:24:44;;;;;;;1.77;0.75;;;28.10;48.60;;;;;;10532504;28;20147;-33
2023/06/27 10:29:46;;;;;;;5.22;1.15;;;28.00;50.80;;;;;;10516538;28;20489;-33
2023/06/27 10:34:49;;;;;;;5.05;1.30;;;27.80;49.00;;;;;;10521147;28;20048;-30
2023/06/27 10:40:00;;;;;;;2.67;0.82;;;26.70;51.90;;;;;;10532194;28;20044;-31
2023/06/27 10:45:06;;;;;;;4.78;1.17;;;26.70;51.40;;;;;;10524646;28;20485;-31
2023/06/27 10:50:12;;;;;;;4.63;1.10;;;26.00;52.60;;;;;;10517323;28;20073;-31
2023/06/27 10:55:27;;;;;;;1.95;0.80;;;26.80;50.60;;;;;;10525574;28;20051;-32
2023/06/27 11:00:32;;;;;;;2.70;0.70;;;26.70;53.50;;;;;;10506818;28;20044;-38
2023/06/27 11:05:45;;;;;;;2.40;1.17;;;27.90;51.00;;;;;;10525749;28;20139;-31
2023/06/27 11:11:06;;;;;;;2.75;0.98;;;27.50;51.20;;;;;;10507312;28;20404;-31
2023/06/27 11:16:08;;;;;;;1.00;0.57;;;26.80;53.30;;;;;;10522673;28;20048;-32
2023/06/27 11:21:12;;;;;;;7.57;0.93;;;27.90;50.90;;;;;;10523344;28;20036;-34
2023/06/27 11:26:14;;;;;;;2.55;0.77;;;26.00;54.40;;;;;;10536815;28;20052;-32
2023/06/27 11:31:17;;;;;;;5.88;1.17;;;26.90;53.20;;;;;;10526358;28;20033;-35
2023/06/27 11:36:23;;;;;;;4.53;0.88;;;25.70;54.20;;;;;;10539858;28;20451;-30
2023/06/27 11:41:27;;;;;;;1.85;0.60;;;26.60;52.40;;;;;;10541823;28;20043;-30
2023/06/27 11:46:30;;;;;;;2.33;0.70;;;27.10;53.60;;;;;;10526195;28;20047;-31
2023/06/27 11:51:42;;;;;;;4.05;1.10;;;26.80;53.40;;;;;;10527530;28;20047;-35
2023/06/27 11:56:44;;;;;;;3.10;1.10;;;25.30;55.10;;;;;;10537190;28;20056;-31
2023/06/27 12:01:46;;;;;;;2.80;1.10;;;26.60;53.40;;;;;;10517249;28;20135;-31
2023/06/27 12:06:50;;;;;;;2.67;1.25;;;27.20;52.20;;;;;;10521254;28;20052;-35
2023/06/27 12:11:53;;;;;;;1.85;0.80;;;26.10;52.90;;;;;;10519518;28;20505;-37
2023/06/27 12:16:55;;;;;;;3.22;0.90;;;27.10;50.50;;;;;;10532014;28;20052;-33
2023/06/27 12:21:59;;;;;;;2.28;0.80;;;26.60;52.50;;;;;;10534448;28;20121;-33
2023/06/27 12:27:01;;;;;;;2.70;0.90;;;26.30;51.20;;;;;;10530180;28;20123;-32
2023/06/27 12:32:04;;;;;;;5.50;1.10;;;26.50;53.40;;;;;;10523727;28;20052;-37
2023/06/27 12:37:07;;;;;;;2.08;0.93;;;24.30;54.10;;;;;;10525258;28;20051;-32
2023/06/27 12:42:09;;;;;;;9.73;1.42;;;25.70;55.70;;;;;;10518061;28;20127;-31
2023/06/27 12:47:11;;;;;;;12.02;1.40;;;25.10;53.90;;;;;;10536458;28;20105;-31
2023/06/27 12:52:15;;;;;;;3.10;0.80;;;24.90;52.90;;;;;;10520647;28;20086;-33
2023/06/27 12:57:17;;;;;;;5.70;1.10;;;25.00;52.40;;;;;;10508424;28;20079;-33
2023/06/27 13:02:20;;;;;;;4.68;1.00;;;24.70;53.00;;;;;;10525578;28;20473;-32
2023/06/27 13:07:23;;;;;;;3.25;1.10;;;25.10;53.40;;;;;;10522271;28;20428;-33
2023/06/27 13:12:25;;;;;;;7.10;1.20;;;25.60;54.00;;;;;;10528985;28;20070;-32
2023/06/27 13:17:27;;;;;;;2.83;0.80;;;24.70;52.70;;;;;;10522498;28;20056;-32
2023/06/27 13:22:32;;;;;;;4.18;0.82;;;25.60;49.60;;;;;;10531733;28;20050;-34
2023/06/27 13:27:35;;;;;;;2.63;0.73;;;25.60;55.40;;;;;;10527719;28;20040;-34
2023/06/27 13:32:36;;;;;;;3.22;0.93;;;26.80;53.00;;;;;;10528498;28;20052;-33
2023/06/27 13:37:40;;;;;;;3.05;0.70;;;27.10;52.60;;;;;;10524509;28;20064;-33
2023/06/27 13:42:42;;;;;;;2.55;1.23;;;27.00;53.50;;;;;;10524565;28;20416;-32
2023/06/27 13:47:44;;;;;;;2.30;0.90;;;26.40;54.40;;;;;;10538051;28;20056;-32
2023/06/27 13:52:47;;;;;;;3.20;0.90;;;26.70;54.10;;;;;;10534819;28;20051;-31
2023/06/27 13:57:49;;;;;;;5.68;1.55;;;26.40;53.70;;;;;;10409974;28;20048;-31
2023/06/27 14:02:51;;;;;;;2.85;0.70;;;25.50;53.80;;;;;;10397549;28;20064;-34
2023/06/27 14:07:54;;;;;;;7.20;1.05;;;28.20;51.00;;;;;;10489125;28;20462;-32
2023/06/27 14:12:56;;;;;;;4.38;1.10;;;25.80;51.60;;;;;;10493505;28;20052;-36
2023/06/27 14:17:58;;;;;;;4.25;1.02;;;26.60;48.00;;;;;;10396823;28;20075;-32
2023/06/27 14:23:04;;;;;;;2.15;0.73;;;27.20;49.50;;;;;;10395763;28;20045;-34
2023/06/27 14:28:06;;;;;;;5.15;0.82;;;27.10;51.60;;;;;;10385008;28;20121;-31
2023/06/27 14:33:08;;;;;;;2.10;0.80;;;27.70;50.80;;;;;;10496548;28;20127;-33
2023/06/27 14:38:12;;;;;;;1.35;0.55;;;26.50;49.20;;;;;;10482037;28;20495;-34
2023/06/27 14:43:14;;;;;;;1.13;0.50;;;28.40;50.10;;;;;;10474380;28;20125;-32
2023/06/27 14:48:16;;;;;;;3.30;0.95;;;27.90;50.80;;;;;;10491129;28;20102;-35
2023/06/27 14:53:19;;;;;;;2.75;0.82;;;27.20;51.50;;;;;;10473287;28;20084;-35
2023/06/27 14:58:21;;;;;;;2.97;1.05;;;28.50;48.50;;;;;;10486969;28;20413;-39
2023/06/27 15:03:23;;;;;;;7.28;1.30;;;29.00;49.40;;;;;;10475507;28;20059;-34
2023/06/27 15:08:26;;;;;;;4.78;0.90;;;28.50;48.30;;;;;;10483773;28;20056;-35
2023/06/27 15:13:28;;;;;;;2.80;0.70;;;27.60;47.80;;;;;;10468242;28;20606;-34
2023/06/27 15:18:30;;;;;;;4.43;1.13;;;28.20;50.40;;;;;;10464330;28;20680;-34
2023/06/27 15:23:33;;;;;;;1.42;0.60;;;27.60;49.10;;;;;;10475220;28;20040;-32
2023/06/27 15:28:35;;;;;;;2.17;0.75;;;28.70;49.80;;;;;;10474753;28;20120;-38
2023/06/27 15:33:37;;;;;;;3.97;0.60;;;29.00;45.50;;;;;;10488202;28;20056;-35
2023/06/27 15:38:41;;;;;;;3.30;0.90;;;28.20;50.30;;;;;;10488657;28;20036;-32
2023/06/27 15:43:43;;;;;;;5.93;1.10;;;27.80;48.00;;;;;;10469410;28;20045;-33
2023/06/27 15:48:45;;;;;;;10.02;1.63;;;27.80;48.50;;;;;;10491989;28;20052;-31
2023/06/27 15:53:49;;;;;;;7.50;1.30;;;25.70;53.20;;;;;;10489474;28;20090;-32
2023/06/27 15:58:50;;;;;;;2.50;1.00;;;26.90;50.90;;;;;;10486347;28;20045;-32
2023/06/27 16:03:52;;;;;;;3.35;0.90;;;25.60;55.10;;;;;;10486899;28;20390;-34
2023/06/27 16:08:56;;;;;;;3.95;0.93;;;28.70;49.10;;;;;;10487720;28;20044;-33
2023/06/27 16:13:58;;;;;;;3.95;1.08;;;28.20;50.10;;;;;;10484365;28;20509;-32
2023/06/27 16:19:00;;;;;;;4.85;1.33;;;29.00;49.00;;;;;;10468744;28;20138;-33
2023/06/27 16:24:04;;;;;;;4.40;1.05;;;29.00;48.80;;;;;;10488157;28;20052;-33
2023/06/27 16:29:05;;;;;;;6.25;1.52;;;29.20;48.70;;;;;;10483384;28;20064;-33
2023/06/27 16:34:08;;;;;;;3.60;1.10;;;28.30;47.70;;;;;;10484251;28;20094;-33
2023/06/27 16:39:11;;;;;;;13.75;1.98;;;29.30;48.00;;;;;;10488086;28;20052;-31
2023/06/27 16:44:13;;;;;;;7.50;1.33;;;27.60;47.00;;;;;;10488392;28;20127;-32
2023/06/27 16:49:15;;;;;;;4.10;0.95;;;27.10;50.70;;;;;;10491090;28;20067;-34
2023/06/27 16:54:20;;;;;;;3.08;1.13;;;29.00;46.40;;;;;;10490235;28;20056;-34
2023/06/27 16:59:22;;;;;;;5.65;1.00;;;28.20;49.50;;;;;;10489514;28;20099;-33
2023/06/27 17:04:24;;;;;;;6.68;1.20;;;29.30;48.10;;;;;;10491134;28;20052;-32
2023/06/27 17:09:27;;;;;;;3.22;1.00;;;26.20;51.10;;;;;;10496268;28;20550;-31
2023/06/27 17:14:29;;;;;;;3.88;1.00;;;28.10;49.50;;;;;;10488645;28;20524;-32
2023/06/27 17:19:31;;;;;;;3.85;0.90;;;29.30;47.90;;;;;;10489922;28;20067;-33
2023/06/27 17:24:34;;;;;;;3.63;0.70;;;27.50;49.30;;;;;;10491323;28;20075;-34
2023/06/27 17:29:36;;;;;;;2.58;0.77;;;28.90;48.60;;;;;;10487036;28;20128;-33
2023/06/27 17:34:38;;;;;;;6.00;1.55;;;29.90;47.30;;;;;;10486898;28;20080;-36
2023/06/27 17:39:41;;;;;;;4.50;0.77;;;29.40;47.40;;;;;;10477694;28;20052;-32
2023/06/27 17:44:43;;;;;;;4.93;1.15;;;29.40;47.90;;;;;;10482304;28;20048;-33
2023/06/27 17:49:45;;;;;;;4.80;0.80;;;29.60;47.70;;;;;;10473010;28;20080;-32
2023/06/27 17:54:48;;;;;;;4.80;1.35;;;28.60;48.60;;;;;;10489546;28;20489;-35
2023/06/27 17:59:50;;;;;;;4.82;0.88;;;29.60;47.60;;;;;;10484378;28;20102;-33
2023/06/27 18:04:52;;;;;;;2.65;0.90;;;27.90;46.80;;;;;;10487553;28;20515;-32
2023/06/27 18:09:56;;;;;;;7.78;1.30;;;29.50;47.40;;;;;;10485299;28;20047;-33
2023/06/27 18:14:59;;;;;;;5.22;1.15;;;29.20;46.60;;;;;;10488249;28;20045;-37
2023/06/27 18:20:02;;;;;;;2.38;0.80;;;29.40;47.20;;;;;;10488049;28;20075;-35
2023/06/27 18:25:06;;;;;;;2.13;0.63;;;29.80;46.70;;;;;;10483260;28;20115;-38
2023/06/27 18:30:09;;;;;;;3.80;0.90;;;29.60;47.70;;;;;;10482289;28;20439;-33
2023/06/27 18:35:11;;;;;;;2.17;1.02;;;29.90;47.30;;;;;;10488410;28;20079;-32
2023/06/27 18:40:14;;;;;;;1.60;0.68;;;28.70;48.50;;;;;;10488140;28;20148;-37
2023/06/27 18:45:16;;;;;;;3.90;0.55;;;29.70;47.60;;;;;;10487885;28;20504;-37
2023/06/27 18:50:19;;;;;;;2.70;0.90;;;29.90;47.30;;;;;;10485876;28;20135;-32
2023/06/27 18:55:23;;;;;;;3.92;1.08;;;29.90;47.20;;;;;;10486049;28;20056;-31
2023/06/27 19:00:25;;;;;;;7.97;0.90;;;29.40;47.60;;;;;;10487522;28;20044;-33
2023/06/27 19:05:28;;;;;;;6.28;0.93;;;29.20;48.10;;;;;;10482761;28;20086;-34
2023/06/27 19:10:32;;;;;;;5.70;1.08;;;29.90;47.30;;;;;;10483567;28;20049;-32
2023/06/27 19:15:34;;;;;;;3.00;0.98;;;29.90;47.20;;;;;;10487441;28;20370;-34
2023/06/27 19:20:35;;;;;;;1.52;0.70;;;29.90;47.70;;;;;;10481145;28;20098;-34
2023/06/27 19:25:39;;;;;;;3.35;1.00;;;29.80;47.20;;;;;;10477288;28;20044;-36
2023/06/27 19:30:41;;;;;;;3.75;0.90;;;29.90;47.20;;;;;;10485098;28;20094;-36
2023/06/27 19:35:43;;;;;;;3.40;1.20;;;29.90;47.10;;;;;;10467835;28;20751;-31
2023/06/27 19:40:47;;;;;;;1.10;0.60;;;29.80;47.00;;;;;;10473877;28;20048;-31
2023/06/27 19:45:49;;;;;;;1.77;0.75;;;29.80;47.20;;;;;;10471220;28;20417;-33
2023/06/27 19:50:50;;;;;;;2.20;0.80;;;29.80;47.10;;;;;;10484164;28;20409;-33
2023/06/27 19:55:54;;;;;;;4.43;1.13;;;29.80;47.10;;;;;;10491636;28;20059;-35
2023/06/27 20:00:56;;;;;;;3.03;0.95;;;29.70;47.20;;;;;;10493301;28;20455;-32
2023/06/27 20:05:58;;;;;;;4.18;0.82;;;29.60;47.20;;;;;;10474837;28;20094;-33
2023/06/27 20:11:01;;;;;;;3.00;0.70;;;29.60;47.20;;;;;;10502612;28;20056;-32
2023/06/27 20:16:03;;;;;;;2.05;0.77;;;29.60;47.30;;;;;;10488340;28;20403;-32
2023/06/27 20:21:05;;;;;;;6.65;1.02;;;29.60;47.40;;;;;;10489548;28;20204;-33
2023/06/27 20:26:11;;;;;;;4.10;0.80;;;29.60;47.30;;;;;;10489918;28;20498;-29
2023/06/27 20:31:12;;;;;;;2.85;0.70;;;29.50;47.30;;;;;;10490950;28;20057;-34
2023/06/27 20:36:14;;;;;;;3.60;1.02;;;29.50;47.30;;;;;;10487349;28;20507;-36
2023/06/27 20:41:19;;;;;;;3.28;0.80;;;29.50;47.50;;;;;;10489723;28;20057;-32
2023/06/27 20:46:21;;;;;;;1.98;0.80;;;29.40;47.60;;;;;;10499317;28;20056;-32
2023/06/27 20:51:22;;;;;;;3.75;0.95;;;29.40;47.50;;;;;;10492389;28;20052;-32
2023/06/27 20:56:26;;;;;;;4.72;1.20;;;29.40;47.60;;;;;;10498265;28;20040;-34
2023/06/27 21:01:27;;;;;;;2.88;0.90;;;29.40;47.70;;;;;;10492869;28;20731;-33
2023/06/27 21:06:29;;;;;;;4.22;0.60;;;29.40;47.80;;;;;;10497246;28;20048;-32
2023/06/27 21:11:33;;;;;;;3.60;1.02;;;29.40;47.80;;;;;;10478871;28;20088;-35
2023/06/27 21:16:35;;;;;;;2.70;0.70;;;29.30;47.80;;;;;;10500063;28;20049;-32
2023/06/27 21:21:36;;;;;;;3.17;0.98;;;29.30;47.90;;;;;;10496588;28;20461;-32
2023/06/27 21:26:40;;;;;;;2.25;0.82;;;29.30;47.90;;;;;;10500268;28;20485;-32
2023/06/27 21:31:42;;;;;;;2.72;0.47;;;29.30;47.90;;;;;;10483868;28;20036;-31
2023/06/27 21:36:44;;;;;;;2.90;0.63;;;29.20;47.90;;;;;;10500465;28;20518;-35
2023/06/27 21:41:47;;;;;;;3.75;0.80;;;29.20;47.90;;;;;;10501276;28;20076;-32
2023/06/27 21:46:49;;;;;;;0.95;0.60;;;29.20;48.00;;;;;;10481665;28;20052;-31
2023/06/27 21:51:51;;;;;;;2.40;0.82;;;29.10;47.90;;;;;;10511531;28;20052;-32
2023/06/27 21:56:54;;;;;;;1.77;0.70;;;29.10;48.00;;;;;;10503361;28;20505;-32
2023/06/27 22:01:56;;;;;;;1.55;0.65;;;29.10;48.00;;;;;;10503523;28;20045;-33
2023/06/27 22:06:58;;;;;;;2.47;0.60;;;29.10;48.00;;;;;;10489381;28;20123;-31
2023/06/27 22:12:02;;;;;;;2.05;0.70;;;29.10;48.10;;;;;;10488135;28;20109;-32
2023/06/27 22:17:04;;;;;;;2.40;0.43;;;29.00;48.10;;;;;;10485892;28;20048;-32
2023/06/27 22:22:06;;;;;;;0.70;0.60;;;29.00;48.20;;;;;;10488760;28;20131;-31
2023/06/27 22:27:09;;;;;;;2.97;0.82;;;29.00;48.20;;;;;;10493596;28;20040;-33
2023/06/27 22:32:11;;;;;;;2.05;0.73;;;29.00;48.30;;;;;;10493053;28;20127;-34
2023/06/27 22:37:13;;;;;;;2.15;0.80;;;28.90;48.30;;;;;;10497069;28;20076;-37
2023/06/27 22:42:16;;;;;;;3.50;1.08;;;28.90;48.30;;;;;;10503180;28;20071;-37
2023/06/27 22:47:18;;;;;;;1.83;0.60;;;28.90;48.40;;;;;;10496262;28;20414;-31
2023/06/27 22:52:20;;;;;;;1.23;0.57;;;28.90;48.40;;;;;;10500540;28;20139;-31
2023/06/27 22:57:23;;;;;;;2.08;0.70;;;28.80;48.50;;;;;;10507623;28;20041;-31
2023/06/27 23:02:25;;;;;;;4.45;0.98;;;28.80;48.50;;;;;;10501234;28;20131;-31
2023/06/27 23:07:27;;;;;;;2.35;0.77;;;28.80;48.60;;;;;;10493795;28;20064;-32
2023/06/27 23:12:32;;;;;;;2.88;0.88;;;28.80;48.70;;;;;;10489750;28;20234;-30
2023/06/27 23:17:36;;;;;;;2.58;1.25;;;28.70;48.70;;;;;;10499349;28;20048;-33
2023/06/27 23:22:40;;;;;;;2.53;0.70;;;28.70;48.70;;;;;;10487861;28;20703;-32
2023/06/27 23:27:43;;;;;;;2.72;0.80;;;28.70;48.80;;;;;;10503537;28;20481;-33
2023/06/27 23:32:54;;;;;;;2.63;0.88;;;28.70;48.90;;;;;;10511245;28;20080;-35
2023/06/27 23:38:01;;;;;;;1.48;0.60;;;28.60;48.90;;;;;;10508016;28;20048;-32
2023/06/27 23:43:06;;;;;;;2.42;1.08;;;28.60;49.00;;;;;;10505940;28;20137;-34
2023/06/27 23:48:08;;;;;;;1.13;0.75;;;28.60;49.10;;;;;;10506266;28;20489;-34
2023/06/27 23:53:10;;;;;;;2.28;0.60;;;28.60;49.10;;;;;;10505721;28;22339;-32
2023/06/27 23:58:13;;;;;;;2.45;0.70;;;28.60;49.20;;;;;;10509977;28;20084;-30
